sensor_id;sensor_type;location;lat;lon;timestamp;pressure;altitude;pressure_sealevel;temperature;humidity
10688;BME280;5392;42.688;23.298;2023-02-21T00:01:19;57367.50;;;-144.48;98.70
10688;BME280;5392;42.688;23.298;2023-02-21T00:04:04;57394.63;;;-144.48;99.66
10688;BME280;5392;42.688;23.298;2023-02-21T00:06:49;57319.50;;;-144.48;99.91
10688;BME280;5392;42.688;23.298;2023-02-21T00:09:37;57405.06;;;-144.48;100.00
10688;BME280;5392;42.688;23.298;2023-02-21T00:12:23;57342.47;;;-144.48;100.00
10688;BME280;5392;42.688;23.298;2023-02-21T00:15:08;57375.84;;;-144.48;100.00
10688;BME280;5392;42.688;23.298;2023-02-21T00:17:55;57317.41;;;-144.48;100.00
10688;BME280;5392;42.688;23.298;2023-02-21T00:20:40;57367.50;;;-144.48;100.00
10688;BME280;5392;42.688;23.298;2023-02-21T00:23:25;57350.81;;;-144.48;100.00
10688;BME280;5392;42.688;23.298;2023-02-21T00:26:10;57327.84;;;-144.48;100.00
10688;BME280;5392;42.688;23.298;2023-02-21T00:28:55;57398.81;;;-144.48;100.00
10688;BME280;5392;42.688;23.298;2023-02-21T00:31:40;57342.47;;;-144.48;100.00
10688;BME280;5392;42.688;23.298;2023-02-21T00:34:26;57363.31;;;-144.48;100.00
10688;BME280;5392;42.688;23.298;2023-02-21T00:37:11;57384.19;;;-144.48;100.00
10688;BME280;5392;42.688;23.298;2023-02-21T00:39:56;57336.19;;;-144.48;100.00
10688;BME280;5392;42.688;23.298;2023-02-21T00:42:41;57346.63;;;-144.48;100.00
10688;BME280;5392;42.688;23.298;2023-02-21T00:45:26;57323.66;;;-144.48;100.00
10688;BME280;5392;42.688;23.298;2023-02-21T00:48:11;57327.84;;;-144.48;100.00
10688;BME280;5392;42.688;23.298;2023-02-21T00:50:56;57357.06;;;-144.48;100.00
10688;BME280;5392;42.688;23.298;2023-02-21T00:53:41;57386.28;;;-144.48;100.00
10688;BME280;5392;42.688;23.298;2023-02-21T00:56:26;57388.38;;;-144.48;100.00
10688;BME280;5392;42.688;23.298;2023-02-21T00:59:11;57346.63;;;-144.48;100.00
10688;BME280;5392;42.688;23.298;2023-02-21T01:01:56;57348.72;;;-144.48;100.00
10688;BME280;5392;42.688;23.298;2023-02-21T01:04:41;57392.56;;;-144.48;100.00
10688;BME280;5392;42.688;23.298;2023-02-21T01:07:27;57386.28;;;-144.48;100.00
10688;BME280;5392;42.688;23.298;2023-02-21T01:10:12;57367.50;;;-144.48;100.00
10688;BME280;5392;42.688;23.298;2023-02-21T01:12:57;57388.38;;;-144.48;100.00
10688;BME280;5392;42.688;23.298;2023-02-21T01:15:43;57359.16;;;-144.48;100.00
10688;BME280;5392;42.688;23.298;2023-02-21T01:18:28;57321.59;;;-144.48;100.00
10688;BME280;5392;42.688;23.298;2023-02-21T01:21:15;57375.84;;;-144.48;100.00
10688;BME280;5392;42.688;23.298;2023-02-21T01:24:01;57354.97;;;-144.48;100.00
10688;BME280;5392;42.688;23.298;2023-02-21T01:26:47;57336.19;;;-144.48;100.00
10688;BME280;5392;42.688;23.298;2023-02-21T01:29:32;57371.69;;;-144.48;100.00
10688;BME280;5392;42.688;23.298;2023-02-21T01:32:17;57382.13;;;-144.48;100.00
10688;BME280;5392;42.688;23.298;2023-02-21T01:35:03;57327.84;;;-144.48;100.00
10688;BME280;5392;42.688;23.298;2023-02-21T01:37:48;57338.28;;;-144.48;100.00
10688;BME280;5392;42.688;23.298;2023-02-21T01:40:34;57384.19;;;-144.48;100.00
10688;BME280;5392;42.688;23.298;2023-02-21T01:43:23;57357.06;;;-144.48;100.00
10688;BME280;5392;42.688;23.298;2023-02-21T01:46:11;57334.09;;;-144.48;100.00
10688;BME280;5392;42.688;23.298;2023-02-21T01:48:58;57363.31;;;-144.48;100.00
10688;BME280;5392;42.688;23.298;2023-02-21T01:51:44;57354.97;;;-144.48;100.00
10688;BME280;5392;42.688;23.298;2023-02-21T01:54:35;57384.19;;;-144.48;100.00
10688;BME280;5392;42.688;23.298;2023-02-21T01:57:22;57342.47;;;-144.48;100.00
10688;BME280;5392;42.688;23.298;2023-02-21T02:00:11;57352.91;;;-144.48;100.00
10688;BME280;5392;42.688;23.298;2023-02-21T02:03:06;57382.13;;;-144.48;100.00
10688;BME280;5392;42.688;23.298;2023-02-21T02:06:17;57338.28;;;-144.48;100.00
10688;BME280;5392;42.688;23.298;2023-02-21T02:09:15;57342.47;;;-144.48;100.00
10688;BME280;5392;42.688;23.298;2023-02-21T02:12:28;57354.97;;;-144.48;100.00
10688;BME280;5392;42.688;23.298;2023-02-21T02:42:55;57375.84;;;-144.48;100.00
10688;BME280;5392;42.688;23.298;2023-02-21T02:45:29;57348.72;;;-144.48;100.00
10688;BME280;5392;42.688;23.298;2023-02-21T02:48:30;57342.47;;;-144.48;100.00
10688;BME280;5392;42.688;23.298;2023-02-21T02:50:59;57334.09;;;-144.48;100.00
10688;BME280;5392;42.688;23.298;2023-02-21T02:53:29;57375.84;;;-144.48;100.00
10688;BME280;5392;42.688;23.298;2023-02-21T02:56:00;57375.84;;;-144.48;100.00
10688;BME280;5392;42.688;23.298;2023-02-21T02:58:32;57350.81;;;-144.48;100.00
10688;BME280;5392;42.688;23.298;2023-02-21T03:01:19;57340.38;;;-144.48;100.00
10688;BME280;5392;42.688;23.298;2023-02-21T03:09:53;57359.16;;;-144.48;100.00
10688;BME280;5392;42.688;23.298;2023-02-21T03:15:04;57315.31;;;-144.48;100.00
10688;BME280;5392;42.688;23.298;2023-02-21T03:17:38;57336.19;;;-144.48;100.00
10688;BME280;5392;42.688;23.298;2023-02-21T03:20:08;57392.56;;;-144.48;100.00
10688;BME280;5392;42.688;23.298;2023-02-21T03:22:37;57365.41;;;-144.48;100.00
10688;BME280;5392;42.688;23.298;2023-02-21T03:25:04;57375.84;;;-144.48;100.00
10688;BME280;5392;42.688;23.298;2023-02-21T03:27:32;57400.91;;;-144.48;100.00
10688;BME280;5392;42.688;23.298;2023-02-21T03:30:03;57354.97;;;-144.48;100.00
10688;BME280;5392;42.688;23.298;2023-02-21T03:32:37;57390.47;;;-144.48;100.00
10688;BME280;5392;42.688;23.298;2023-02-21T03:35:06;57371.69;;;-144.48;100.00
10688;BME280;5392;42.688;23.298;2023-02-21T03:37:36;57380.03;;;-144.48;100.00
10688;BME280;5392;42.688;23.298;2023-02-21T03:40:13;57382.13;;;-144.48;100.00
10688;BME280;5392;42.688;23.298;2023-02-21T03:42:40;57357.06;;;-144.48;100.00
10688;BME280;5392;42.688;23.298;2023-02-21T03:45:07;57354.97;;;-144.48;100.00
10688;BME280;5392;42.688;23.298;2023-02-21T03:47:34;57344.53;;;-144.48;100.00
10688;BME280;5392;42.688;23.298;2023-02-21T03:50:01;57380.03;;;-144.48;100.00
10688;BME280;5392;42.688;23.298;2023-02-21T03:52:27;57338.28;;;-144.48;100.00
10688;BME280;5392;42.688;23.298;2023-02-21T03:54:54;57327.84;;;-144.48;100.00
10688;BME280;5392;42.688;23.298;2023-02-21T03:57:21;57325.75;;;-144.48;100.00
10688;BME280;5392;42.688;23.298;2023-02-21T03:59:48;57350.81;;;-144.48;100.00
10688;BME280;5392;42.688;23.298;2023-02-21T04:02:14;57352.91;;;-144.48;100.00
10688;BME280;5392;42.688;23.298;2023-02-21T04:04:41;57373.75;;;-144.48;100.00
10688;BME280;5392;42.688;23.298;2023-02-21T04:07:08;57390.47;;;-144.48;100.00
10688;BME280;5392;42.688;23.298;2023-02-21T04:09:36;57380.03;;;-144.48;100.00
10688;BME280;5392;42.688;23.298;2023-02-21T04:12:04;57346.63;;;-144.48;100.00
10688;BME280;5392;42.688;23.298;2023-02-21T04:14:31;57392.56;;;-144.48;100.00
10688;BME280;5392;42.688;23.298;2023-02-21T04:16:58;57344.53;;;-144.48;100.00
10688;BME280;5392;42.688;23.298;2023-02-21T04:19:24;57317.41;;;-144.48;100.00
10688;BME280;5392;42.688;23.298;2023-02-21T04:21:51;57363.31;;;-144.48;100.00
10688;BME280;5392;42.688;23.298;2023-02-21T04:24:17;57348.72;;;-144.48;100.00
10688;BME280;5392;42.688;23.298;2023-02-21T04:26:44;57354.97;;;-144.48;100.00
10688;BME280;5392;42.688;23.298;2023-02-21T04:29:11;57327.84;;;-144.48;100.00
10688;BME280;5392;42.688;23.298;2023-02-21T04:31:37;57371.69;;;-144.48;100.00
10688;BME280;5392;42.688;23.298;2023-02-21T04:34:04;57359.16;;;-144.48;100.00
10688;BME280;5392;42.688;23.298;2023-02-21T04:36:38;57403.00;;;-144.48;100.00
10688;BME280;5392;42.688;23.298;2023-02-21T04:39:05;57338.28;;;-144.48;100.00
10688;BME280;5392;42.688;23.298;2023-02-21T04:41:32;57344.53;;;-144.48;100.00
10688;BME280;5392;42.688;23.298;2023-02-21T04:43:59;57371.69;;;-144.48;100.00
10688;BME280;5392;42.688;23.298;2023-02-21T04:46:26;57373.75;;;-144.48;100.00
10688;BME280;5392;42.688;23.298;2023-02-21T04:48:52;57369.59;;;-144.48;100.00
10688;BME280;5392;42.688;23.298;2023-02-21T04:51:21;57384.19;;;-144.48;100.00
10688;BME280;5392;42.688;23.298;2023-02-21T04:53:49;57375.84;;;-144.48;100.00
10688;BME280;5392;42.688;23.298;2023-02-21T04:56:21;57365.41;;;-144.48;100.00
10688;BME280;5392;42.688;23.298;2023-02-21T04:58:49;57357.06;;;-144.48;100.00
10688;BME280;5392;42.688;23.298;2023-02-21T05:01:18;57371.69;;;-144.48;100.00
10688;BME280;5392;42.688;23.298;2023-02-21T05:03:46;57369.59;;;-144.48;100.00
10688;BME280;5392;42.688;23.298;2023-02-21T05:06:19;57334.09;;;-144.48;100.00
10688;BME280;5392;42.688;23.298;2023-02-21T05:08:47;57359.16;;;-144.48;100.00
10688;BME280;5392;42.688;23.298;2023-02-21T05:11:13;57361.25;;;-144.48;100.00
10688;BME280;5392;42.688;23.298;2023-02-21T05:13:41;57357.06;;;-144.48;100.00
10688;BME280;5392;42.688;23.298;2023-02-21T05:16:08;57348.72;;;-144.48;100.00
10688;BME280;5392;42.688;23.298;2023-02-21T05:18:34;57357.06;;;-144.48;100.00
10688;BME280;5392;42.688;23.298;2023-02-21T05:21:05;57325.75;;;-144.48;100.00
10688;BME280;5392;42.688;23.298;2023-02-21T05:23:33;57380.03;;;-144.48;100.00
10688;BME280;5392;42.688;23.298;2023-02-21T05:26:06;57386.28;;;-144.48;100.00
10688;BME280;5392;42.688;23.298;2023-02-21T05:28:34;57382.13;;;-144.48;100.00
10688;BME280;5392;42.688;23.298;2023-02-21T05:31:01;57371.69;;;-144.48;100.00
10688;BME280;5392;42.688;23.298;2023-02-21T05:33:29;57334.09;;;-144.48;100.00
10688;BME280;5392;42.688;23.298;2023-02-21T05:35:56;57338.28;;;-144.48;100.00
10688;BME280;5392;42.688;23.298;2023-02-21T05:38:24;57388.38;;;-144.48;100.00
10688;BME280;5392;42.688;23.298;2023-02-21T05:40:51;57332.03;;;-144.48;100.00
10688;BME280;5392;42.688;23.298;2023-02-21T05:43:18;57342.47;;;-144.48;100.00
10688;BME280;5392;42.688;23.298;2023-02-21T05:45:45;57375.84;;;-144.48;98.96
10688;BME280;5392;42.688;23.298;2023-02-21T05:48:12;57380.03;;;-144.48;94.76
10688;BME280;5392;42.688;23.298;2023-02-21T05:50:38;57325.75;;;-144.48;88.74
10688;BME280;5392;42.688;23.298;2023-02-21T05:53:05;57354.97;;;-144.48;87.24
10688;BME280;5392;42.688;23.298;2023-02-21T05:55:32;57354.97;;;-144.48;80.79
10688;BME280;5392;42.688;23.298;2023-02-21T05:57:59;57348.72;;;-144.48;76.64
10688;BME280;5392;42.688;23.298;2023-02-21T06:00:28;57382.13;;;-144.48;72.05
10688;BME280;5392;42.688;23.298;2023-02-21T06:02:55;57352.91;;;-144.48;68.73
10688;BME280;5392;42.688;23.298;2023-02-21T06:05:22;57361.25;;;-144.48;68.79
10688;BME280;5392;42.688;23.298;2023-02-21T06:07:50;57363.31;;;-144.48;68.17
10688;BME280;5392;42.688;23.298;2023-02-21T06:10:17;57386.28;;;-144.48;65.42
10688;BME280;5392;42.688;23.298;2023-02-21T06:12:44;57384.19;;;-144.48;64.77
10688;BME280;5392;42.688;23.298;2023-02-21T06:15:11;57357.06;;;-144.48;62.47
10688;BME280;5392;42.688;23.298;2023-02-21T06:17:39;57365.41;;;-144.48;62.60
10688;BME280;5392;42.688;23.298;2023-02-21T06:20:07;57344.53;;;-144.48;62.40
10688;BME280;5392;42.688;23.298;2023-02-21T06:22:34;57354.97;;;-144.48;62.19
10688;BME280;5392;42.688;23.298;2023-02-21T06:25:01;57302.81;;;-144.48;62.40
10688;BME280;5392;42.688;23.298;2023-02-21T06:27:27;57350.81;;;-144.48;62.17
10688;BME280;5392;42.688;23.298;2023-02-21T06:29:54;57350.81;;;-144.48;61.52
10688;BME280;5392;42.688;23.298;2023-02-21T06:32:21;57300.72;;;-144.48;61.70
10688;BME280;5392;42.688;23.298;2023-02-21T06:34:47;57334.09;;;-144.48;60.26
10688;BME280;5392;42.688;23.298;2023-02-21T06:37:14;57298.63;;;-144.48;60.35
10688;BME280;5392;42.688;23.298;2023-02-21T06:39:41;57363.31;;;-144.48;60.23
10688;BME280;5392;42.688;23.298;2023-02-21T06:42:12;57357.06;;;-144.48;60.40
10688;BME280;5392;42.688;23.298;2023-02-21T06:44:39;57338.28;;;-144.48;59.36
10688;BME280;5392;42.688;23.298;2023-02-21T06:47:05;57346.63;;;-144.48;59.13
10688;BME280;5392;42.688;23.298;2023-02-21T06:49:32;57348.72;;;-144.48;59.09
10688;BME280;5392;42.688;23.298;2023-02-21T06:51:59;57323.66;;;-144.48;59.65
10688;BME280;5392;42.688;23.298;2023-02-21T06:54:26;57375.84;;;-144.48;60.02
10688;BME280;5392;42.688;23.298;2023-02-21T06:56:52;57315.31;;;-144.48;60.43
10688;BME280;5392;42.688;23.298;2023-02-21T06:59:19;57346.63;;;-144.48;60.45
10688;BME280;5392;42.688;23.298;2023-02-21T07:01:45;57373.75;;;-144.48;60.78
10688;BME280;5392;42.688;23.298;2023-02-21T07:04:12;57367.50;;;-144.48;60.43
10688;BME280;5392;42.688;23.298;2023-02-21T07:06:39;57348.72;;;-144.48;59.88
10688;BME280;5392;42.688;23.298;2023-02-21T07:09:06;57340.38;;;-144.48;58.78
10688;BME280;5392;42.688;23.298;2023-02-21T07:11:33;57338.28;;;-144.48;60.94
10688;BME280;5392;42.688;23.298;2023-02-21T07:14:00;57334.09;;;-144.48;60.76
10688;BME280;5392;42.688;23.298;2023-02-21T07:16:27;57367.50;;;-144.48;60.06
10688;BME280;5392;42.688;23.298;2023-02-21T07:18:54;57363.31;;;-144.48;60.43
10688;BME280;5392;42.688;23.298;2023-02-21T07:21:20;57357.06;;;-144.48;60.83
10688;BME280;5392;42.688;23.298;2023-02-21T07:23:47;57375.84;;;-144.48;61.06
10688;BME280;5392;42.688;23.298;2023-02-21T07:26:14;57350.81;;;-144.48;62.19
10688;BME280;5392;42.688;23.298;2023-02-21T07:28:41;57344.53;;;-144.48;62.23
10688;BME280;5392;42.688;23.298;2023-02-21T07:31:08;57336.19;;;-144.48;62.46
10688;BME280;5392;42.688;23.298;2023-02-21T07:33:36;57359.16;;;-144.48;62.27
10688;BME280;5392;42.688;23.298;2023-02-21T07:36:03;57407.16;;;-144.48;63.05
10688;BME280;5392;42.688;23.298;2023-02-21T07:38:30;57346.63;;;-144.48;62.24
10688;BME280;5392;42.688;23.298;2023-02-21T07:41:00;57327.84;;;-144.48;62.45
10688;BME280;5392;42.688;23.298;2023-02-21T07:43:28;57338.28;;;-144.48;62.30
10688;BME280;5392;42.688;23.298;2023-02-21T07:45:55;57363.31;;;-144.48;61.86
10688;BME280;5392;42.688;23.298;2023-02-21T07:48:22;57340.38;;;-144.48;61.94
10688;BME280;5392;42.688;23.298;2023-02-21T07:50:49;57354.97;;;-144.48;62.27
10688;BME280;5392;42.688;23.298;2023-02-21T07:53:16;57359.16;;;-144.48;63.51
10688;BME280;5392;42.688;23.298;2023-02-21T07:55:43;57306.97;;;-144.48;63.56
10688;BME280;5392;42.688;23.298;2023-02-21T07:58:09;57348.72;;;-144.48;64.26
10688;BME280;5392;42.688;23.298;2023-02-21T08:00:36;57350.81;;;-144.48;65.29
10688;BME280;5392;42.688;23.298;2023-02-21T08:03:06;57377.94;;;-144.48;66.67
10688;BME280;5392;42.688;23.298;2023-02-21T08:05:32;57350.81;;;-144.48;67.49
10688;BME280;5392;42.688;23.298;2023-02-21T08:07:59;57373.75;;;-144.48;67.88
10688;BME280;5392;42.688;23.298;2023-02-21T08:10:26;57373.75;;;-144.48;68.32
10688;BME280;5392;42.688;23.298;2023-02-21T08:12:54;57371.69;;;-144.48;68.53
10688;BME280;5392;42.688;23.298;2023-02-21T08:15:21;57348.72;;;-144.48;70.18
10688;BME280;5392;42.688;23.298;2023-02-21T08:17:49;57350.81;;;-144.48;70.50
10688;BME280;5392;42.688;23.298;2023-02-21T08:20:16;57359.16;;;-144.48;69.89
10688;BME280;5392;42.688;23.298;2023-02-21T08:22:43;57361.25;;;-144.48;70.01
10688;BME280;5392;42.688;23.298;2023-02-21T08:25:14;57386.28;;;-144.48;69.52
10688;BME280;5392;42.688;23.298;2023-02-21T08:27:42;57377.94;;;-144.48;70.00
10688;BME280;5392;42.688;23.298;2023-02-21T08:30:11;57365.41;;;-144.48;69.80
10688;BME280;5392;42.688;23.298;2023-02-21T08:32:40;57363.31;;;-144.48;70.08
10688;BME280;5392;42.688;23.298;2023-02-21T08:35:06;57396.72;;;-144.48;70.37
10688;BME280;5392;42.688;23.298;2023-02-21T08:37:34;57321.59;;;-144.48;70.77
10688;BME280;5392;42.688;23.298;2023-02-21T08:40:02;57384.19;;;-144.48;70.03
10688;BME280;5392;42.688;23.298;2023-02-21T08:42:29;57371.69;;;-144.48;69.82
10688;BME280;5392;42.688;23.298;2023-02-21T08:44:56;57380.03;;;-144.48;69.97
10688;BME280;5392;42.688;23.298;2023-02-21T08:47:22;57400.91;;;-144.48;69.64
10688;BME280;5392;42.688;23.298;2023-02-21T08:49:49;57382.13;;;-144.48;69.34
10688;BME280;5392;42.688;23.298;2023-02-21T08:52:17;57382.13;;;-144.48;69.00
10688;BME280;5392;42.688;23.298;2023-02-21T08:54:44;57359.16;;;-144.48;69.09
10688;BME280;5392;42.688;23.298;2023-02-21T08:57:11;57350.81;;;-144.48;68.86
10688;BME280;5392;42.688;23.298;2023-02-21T08:59:41;57369.59;;;-144.48;68.52
10688;BME280;5392;42.688;23.298;2023-02-21T09:02:15;57340.38;;;-144.48;69.12
10688;BME280;5392;42.688;23.298;2023-02-21T09:04:43;57342.47;;;-144.48;69.28
10688;BME280;5392;42.688;23.298;2023-02-21T09:07:14;57386.28;;;-144.48;69.36
10688;BME280;5392;42.688;23.298;2023-02-21T09:09:41;57365.41;;;-144.48;68.77
10688;BME280;5392;42.688;23.298;2023-02-21T09:12:08;57325.75;;;-144.48;67.61
10688;BME280;5392;42.688;23.298;2023-02-21T09:14:35;57348.72;;;-144.48;67.50
10688;BME280;5392;42.688;23.298;2023-02-21T09:17:04;57350.81;;;-144.48;67.50
10688;BME280;5392;42.688;23.298;2023-02-21T09:19:31;57428.03;;;-144.48;67.08
10688;BME280;5392;42.688;23.298;2023-02-21T09:21:58;57371.69;;;-144.48;66.36
10688;BME280;5392;42.688;23.298;2023-02-21T09:24:27;57382.13;;;-144.48;66.44
10688;BME280;5392;42.688;23.298;2023-02-21T09:26:56;57338.28;;;-144.48;66.01
10688;BME280;5392;42.688;23.298;2023-02-21T09:29:31;57340.38;;;-144.48;64.77
10688;BME280;5392;42.688;23.298;2023-02-21T09:32:11;57380.03;;;-144.48;63.70
10688;BME280;5392;42.688;23.298;2023-02-21T09:34:37;57365.41;;;-144.48;63.22
10688;BME280;5392;42.688;23.298;2023-02-21T09:37:05;57359.16;;;-144.48;62.84
10688;BME280;5392;42.688;23.298;2023-02-21T09:39:32;57392.56;;;-144.48;62.28
10688;BME280;5392;42.688;23.298;2023-02-21T09:41:59;57344.53;;;-144.48;61.87
10688;BME280;5392;42.688;23.298;2023-02-21T09:44:26;57336.19;;;-144.48;62.47
10688;BME280;5392;42.688;23.298;2023-02-21T09:46:57;57363.31;;;-144.48;61.81
10688;BME280;5392;42.688;23.298;2023-02-21T09:49:38;57352.91;;;-144.48;61.46
10688;BME280;5392;42.688;23.298;2023-02-21T09:52:17;57346.63;;;-144.48;61.25
10688;BME280;5392;42.688;23.298;2023-02-21T09:54:53;57350.81;;;-144.48;60.48
10688;BME280;5392;42.688;23.298;2023-02-21T09:57:22;57327.84;;;-144.48;59.72
10688;BME280;5392;42.688;23.298;2023-02-21T09:59:49;57288.19;;;-144.48;59.49
10688;BME280;5392;42.688;23.298;2023-02-21T10:05:29;57334.09;;;-144.48;58.33
10688;BME280;5392;42.688;23.298;2023-02-21T10:11:09;57384.19;;;-144.48;57.94
10688;BME280;5392;42.688;23.298;2023-02-21T10:13:51;57332.03;;;-144.48;57.34
10688;BME280;5392;42.688;23.298;2023-02-21T10:19:36;57373.75;;;-144.48;56.33
10688;BME280;5392;42.688;23.298;2023-02-21T10:22:19;57344.53;;;-144.48;56.26
10688;BME280;5392;42.688;23.298;2023-02-21T10:24:47;57365.41;;;-144.48;55.45
10688;BME280;5392;42.688;23.298;2023-02-21T10:27:23;57359.16;;;-144.48;53.85
10688;BME280;5392;42.688;23.298;2023-02-21T10:30:07;57377.94;;;-144.48;53.18
10688;BME280;5392;42.688;23.298;2023-02-21T10:32:36;57325.75;;;-144.48;52.97
10688;BME280;5392;42.688;23.298;2023-02-21T10:35:04;57346.63;;;-144.48;52.74
10688;BME280;5392;42.688;23.298;2023-02-21T10:37:52;57348.72;;;-144.48;52.86
10688;BME280;5392;42.688;23.298;2023-02-21T10:40:39;57367.50;;;-144.48;52.38
10688;BME280;5392;42.688;23.298;2023-02-21T10:43:27;57363.31;;;-144.48;52.65
10688;BME280;5392;42.688;23.298;2023-02-21T10:46:19;57354.97;;;-144.48;52.45
10688;BME280;5392;42.688;23.298;2023-02-21T10:48:52;57313.22;;;-144.48;52.22
10688;BME280;5392;42.688;23.298;2023-02-21T10:51:33;57336.19;;;-144.48;51.94
10688;BME280;5392;42.688;23.298;2023-02-21T10:54:21;57365.41;;;-144.48;52.20
10688;BME280;5392;42.688;23.298;2023-02-21T10:56:49;57319.50;;;-144.48;52.63
10688;BME280;5392;42.688;23.298;2023-02-21T10:59:26;57342.47;;;-144.48;52.57
10688;BME280;5392;42.688;23.298;2023-02-21T11:01:55;57344.53;;;-144.48;52.64
10688;BME280;5392;42.688;23.298;2023-02-21T11:06:56;57359.16;;;-144.48;52.41
10688;BME280;5392;42.688;23.298;2023-02-21T11:09:31;57373.75;;;-144.48;52.64
10688;BME280;5392;42.688;23.298;2023-02-21T11:12:04;57327.84;;;-144.48;52.72
10688;BME280;5392;42.688;23.298;2023-02-21T11:14:32;57361.25;;;-144.48;52.33
10688;BME280;5392;42.688;23.298;2023-02-21T11:19:49;57323.66;;;-144.48;52.07
10688;BME280;5392;42.688;23.298;2023-02-21T11:22:19;57363.31;;;-144.48;52.06
10688;BME280;5392;42.688;23.298;2023-02-21T11:24:52;57325.75;;;-144.48;52.34
10688;BME280;5392;42.688;23.298;2023-02-21T11:27:21;57317.41;;;-144.48;52.16
10688;BME280;5392;42.688;23.298;2023-02-21T11:29:49;57354.97;;;-144.48;52.14
10688;BME280;5392;42.688;23.298;2023-02-21T11:32:34;57367.50;;;-144.48;52.06
10688;BME280;5392;42.688;23.298;2023-02-21T11:35:53;57338.28;;;-144.48;52.29
10688;BME280;5392;42.688;23.298;2023-02-21T11:38:33;57367.50;;;-144.48;52.55
10688;BME280;5392;42.688;23.298;2023-02-21T11:41:26;57332.03;;;-144.48;52.60
10688;BME280;5392;42.688;23.298;2023-02-21T11:43:50;57361.25;;;-144.48;52.47
10688;BME280;5392;42.688;23.298;2023-02-21T11:47:04;57327.84;;;-144.48;52.41
10688;BME280;5392;42.688;23.298;2023-02-21T11:51:52;57380.03;;;-144.48;52.50
10688;BME280;5392;42.688;23.298;2023-02-21T11:54:24;57340.38;;;-144.48;52.39
10688;BME280;5392;42.688;23.298;2023-02-21T11:59:38;57340.38;;;-144.48;52.30
10688;BME280;5392;42.688;23.298;2023-02-21T12:28:25;57348.72;;;-144.48;52.79
10688;BME280;5392;42.688;23.298;2023-02-21T12:36:17;57363.31;;;-144.48;52.81
10688;BME280;5392;42.688;23.298;2023-02-21T12:39:06;57367.50;;;-144.48;52.79
10688;BME280;5392;42.688;23.298;2023-02-21T12:47:58;57365.41;;;-144.48;52.80
10688;BME280;5392;42.688;23.298;2023-02-21T12:50:33;57354.97;;;-144.48;52.98
10688;BME280;5392;42.688;23.298;2023-02-21T12:53:19;57367.50;;;-144.48;53.08
10688;BME280;5392;42.688;23.298;2023-02-21T12:55:53;57348.72;;;-144.48;53.34
10688;BME280;5392;42.688;23.298;2023-02-21T13:01:06;57365.41;;;-144.48;53.08
10688;BME280;5392;42.688;23.298;2023-02-21T13:03:41;57354.97;;;-144.48;52.81
10688;BME280;5392;42.688;23.298;2023-02-21T13:08:46;57327.84;;;-144.48;52.95
10688;BME280;5392;42.688;23.298;2023-02-21T13:11:55;57319.50;;;-144.48;52.76
10688;BME280;5392;42.688;23.298;2023-02-21T13:14:27;57300.72;;;-144.48;52.72
10688;BME280;5392;42.688;23.298;2023-02-21T13:16:57;57342.47;;;-144.48;52.92
10688;BME280;5392;42.688;23.298;2023-02-21T13:19:24;57348.72;;;-144.48;52.90
10688;BME280;5392;42.688;23.298;2023-02-21T13:22:04;57354.97;;;-144.48;52.90
10688;BME280;5392;42.688;23.298;2023-02-21T13:27:56;57388.38;;;-144.48;52.88
10688;BME280;5392;42.688;23.298;2023-02-21T13:33:01;57336.19;;;-144.48;52.90
10688;BME280;5392;42.688;23.298;2023-02-21T13:35:37;57350.81;;;-144.48;52.94
10688;BME280;5392;42.688;23.298;2023-02-21T13:38:08;57350.81;;;-144.48;52.80
10688;BME280;5392;42.688;23.298;2023-02-21T13:40:47;57357.06;;;-144.48;53.00
10688;BME280;5392;42.688;23.298;2023-02-21T13:43:28;57327.84;;;-144.48;52.66
10688;BME280;5392;42.688;23.298;2023-02-21T13:46:21;57357.06;;;-144.48;52.60
10688;BME280;5392;42.688;23.298;2023-02-21T13:51:52;57319.50;;;-144.48;52.61
10688;BME280;5392;42.688;23.298;2023-02-21T13:54:22;57336.19;;;-144.48;52.62
10688;BME280;5392;42.688;23.298;2023-02-21T13:56:50;57365.41;;;-144.48;52.63
10688;BME280;5392;42.688;23.298;2023-02-21T13:59:32;57352.91;;;-144.48;52.66
10688;BME280;5392;42.688;23.298;2023-02-21T14:02:21;57344.53;;;-144.48;52.91
10688;BME280;5392;42.688;23.298;2023-02-21T14:05:00;57336.19;;;-144.48;52.79
10688;BME280;5392;42.688;23.298;2023-02-21T14:08:04;57294.44;;;-144.48;52.79
10688;BME280;5392;42.688;23.298;2023-02-21T14:10:44;57321.59;;;-144.48;52.90
10688;BME280;5392;42.688;23.298;2023-02-21T14:13:33;57369.59;;;-144.48;52.85
10688;BME280;5392;42.688;23.298;2023-02-21T14:21:09;57380.03;;;-144.48;52.66
10688;BME280;5392;42.688;23.298;2023-02-21T14:23:51;57365.41;;;-144.48;52.61
10688;BME280;5392;42.688;23.298;2023-02-21T14:26:38;57367.50;;;-144.48;52.62
10688;BME280;5392;42.688;23.298;2023-02-21T14:31:50;57346.63;;;-144.48;52.35
10688;BME280;5392;42.688;23.298;2023-02-21T14:34:31;57373.75;;;-144.48;52.29
10688;BME280;5392;42.688;23.298;2023-02-21T14:37:13;57329.94;;;-144.48;52.32
10688;BME280;5392;42.688;23.298;2023-02-21T14:39:45;57329.94;;;-144.48;52.40
10688;BME280;5392;42.688;23.298;2023-02-21T15:03:50;57340.38;;;-144.48;52.76
10688;BME280;5392;42.688;23.298;2023-02-21T15:06:20;57342.47;;;-144.48;52.49
10688;BME280;5392;42.688;23.298;2023-02-21T15:08:51;57338.28;;;-144.48;52.85
10688;BME280;5392;42.688;23.298;2023-02-21T15:11:23;57348.72;;;-144.48;52.85
10688;BME280;5392;42.688;23.298;2023-02-21T15:14:21;57373.75;;;-144.48;52.74
10688;BME280;5392;42.688;23.298;2023-02-21T15:19:21;57359.16;;;-144.48;53.00
10688;BME280;5392;42.688;23.298;2023-02-21T15:27:57;57344.53;;;-144.48;53.18
10688;BME280;5392;42.688;23.298;2023-02-21T15:30:29;57327.84;;;-144.48;53.35
10688;BME280;5392;42.688;23.298;2023-02-21T15:33:04;57352.91;;;-144.48;53.45
10688;BME280;5392;42.688;23.298;2023-02-21T15:35:38;57361.25;;;-144.48;53.55